Time;durP1;ratioP1;P1;durP2;ratioP2;P2;SDS_P1;SDS_P2;PMS_P1;PMS_P2;Temp;Humidity;BMP_temperature;BMP_pressure;BME280_temperature;BME280_humidity;BME280_pressure;Samples;Min_cycle;Max_cycle;Signal;HPM_P1;HPM_P2
2024/03/05 00:01:47;;;;;;;74.25;33.00;;;;;;;6.83;100.00;100916.63;4970703;28;20030;-71
2024/03/05 00:04:13;;;;;;;80.15;33.22;;;;;;;6.78;100.00;100920.53;4982290;28;20521;-72
2024/03/05 00:06:38;;;;;;;79.55;31.98;;;;;;;6.75;100.00;100920.81;4983009;28;20033;-71
2024/03/05 00:09:04;;;;;;;76.88;32.75;;;;;;;6.72;100.00;100921.03;4983638;28;20428;-71
2024/03/05 00:11:29;;;;;;;73.93;32.13;;;;;;;6.70;100.00;100915.22;4981028;28;20037;-71
2024/03/05 00:13:55;;;;;;;85.03;33.47;;;;;;;6.68;100.00;100928.22;4969441;28;20484;-73
2024/03/05 00:16:21;;;;;;;68.90;30.75;;;;;;;6.65;100.00;100928.50;4985442;28;20133;-71
2024/03/05 00:18:46;;;;;;;72.85;32.22;;;;;;;6.62;100.00;100928.72;4983148;28;20046;-72
2024/03/05 00:21:12;;;;;;;75.18;32.75;;;;;;;6.58;100.00;100927.34;4979920;28;20064;-71
2024/03/05 00:23:38;;;;;;;67.68;31.80;;;;;;;6.53;100.00;100929.50;4980861;28;20030;-71
2024/03/05 00:26:05;;;;;;;77.55;31.88;;;;;;;6.48;100.00;100940.19;4985104;28;20036;-71
2024/03/05 00:28:31;;;;;;;83.22;34.28;;;;;;;6.42;100.00;100932.94;4963576;28;20041;-72
2024/03/05 00:30:57;;;;;;;70.97;31.17;;;;;;;6.29;100.00;100929.72;4992280;28;20062;-71
2024/03/05 00:33:22;;;;;;;67.40;28.92;;;;;;;6.15;100.00;100933.44;5000759;28;20030;-71
2024/03/05 00:35:47;;;;;;;73.82;29.10;;;;;;;6.09;100.00;100932.16;4980101;28;20042;-71
2024/03/05 00:38:13;;;;;;;65.63;28.33;;;;;;;6.04;100.00;100927.38;4982285;28;20626;-72
2024/03/05 00:40:40;;;;;;;70.68;29.58;;;;;;;6.01;100.00;100930.22;4993977;28;20053;-71
2024/03/05 00:43:06;;;;;;;71.05;29.85;;;;;;;5.95;100.00;100930.72;4982964;28;20125;-71
2024/03/05 00:45:32;;;;;;;71.75;28.92;;;;;;;5.92;100.00;100933.47;4982076;28;20440;-71
2024/03/05 00:47:57;;;;;;;70.55;29.73;;;;;;;5.93;100.00;100942.00;4981712;28;20030;-71
2024/03/05 00:50:23;;;;;;;68.07;29.45;;;;;;;5.89;100.00;100931.16;4998332;28;20129;-71
2024/03/05 00:52:49;;;;;;;72.90;30.17;;;;;;;5.85;100.00;100934.91;4981948;28;20038;-71
2024/03/05 00:55:15;;;;;;;73.28;30.33;;;;;;;5.81;100.00;100933.53;4982885;28;20045;-71
2024/03/05 00:57:40;;;;;;;66.07;28.45;;;;;;;5.68;100.00;100941.38;4982130;28;20042;-72
2024/03/05 01:00:07;;;;;;;67.05;28.08;;;;;;;5.61;100.00;100932.50;4979224;28;20077;-71
2024/03/05 01:02:32;;;;;;;64.82;28.40;;;;;;;5.59;100.00;100936.97;4979928;28;20061;-71
2024/03/05 01:04:58;;;;;;;79.82;32.78;;;;;;;5.57;100.00;100933.69;4980253;28;20104;-71
2024/03/05 01:07:23;;;;;;;75.25;30.13;;;;;;;5.54;100.00;100931.34;4982608;28;20034;-71
2024/03/05 01:09:49;;;;;;;80.07;32.67;;;;;;;5.52;100.00;100926.34;4981581;28;20564;-71
2024/03/05 01:12:15;;;;;;;71.57;30.42;;;;;;;5.50;100.00;100925.66;4992272;28;20030;-71
2024/03/05 01:14:41;;;;;;;77.28;31.65;;;;;;;5.49;100.00;100928.34;4996435;28;20043;-72
2024/03/05 01:17:08;;;;;;;72.13;29.27;;;;;;;5.45;100.00;100931.13;4979955;28;20456;-71
2024/03/05 01:19:34;;;;;;;74.40;32.00;;;;;;;5.40;100.00;100932.44;4977903;28;20042;-71
2024/03/05 01:22:00;;;;;;;74.03;30.05;;;;;;;5.34;100.00;100926.00;4965609;28;20408;-71
2024/03/05 01:24:26;;;;;;;72.63;31.10;;;;;;;5.32;100.00;100927.88;4980476;28;20041;-71
2024/03/05 01:26:52;;;;;;;72.05;31.55;;;;;;;5.31;100.00;100928.81;4981828;28;20413;-71
2024/03/05 01:29:18;;;;;;;77.05;31.75;;;;;;;5.31;100.00;100926.22;4978605;28;20035;-72
2024/03/05 01:31:47;;;;;;;76.88;30.70;;;;;;;5.32;100.00;100929.66;4994793;28;20065;-71
2024/03/05 01:34:12;;;;;;;78.05;32.17;;;;;;;5.32;100.00;100929.66;4984726;28;20499;-71
2024/03/05 01:36:38;;;;;;;73.32;30.98;;;;;;;5.29;100.00;100922.97;4983508;28;20042;-71
2024/03/05 01:39:04;;;;;;;71.03;29.65;;;;;;;5.26;100.00;100921.47;4982140;28;20046;-71
2024/03/05 01:41:29;;;;;;;77.50;30.60;;;;;;;5.24;100.00;100915.63;4982340;28;20088;-71
2024/03/05 01:43:55;;;;;;;78.70;31.70;;;;;;;5.24;100.00;100919.97;4977907;28;20050;-71
2024/03/05 01:46:21;;;;;;;82.35;31.58;;;;;;;5.25;100.00;100919.84;4964736;28;20072;-71
2024/03/05 01:48:47;;;;;;;77.38;32.70;;;;;;;5.26;100.00;100915.50;4969364;28;20073;-72
2024/03/05 01:51:16;;;;;;;86.68;33.42;;;;;;;5.29;100.00;100915.25;4987253;28;20037;-71
2024/03/05 01:53:43;;;;;;;84.35;34.15;;;;;;;5.31;100.00;100915.94;4978878;28;20823;-72
2024/03/05 01:56:14;;;;;;;81.20;32.63;;;;;;;5.32;100.00;100919.34;4979612;28;20023;-71
2024/03/05 01:58:42;;;;;;;79.28;31.88;;;;;;;5.32;100.00;100917.59;4979683;28;20184;-72
2024/03/05 02:01:10;;;;;;;86.85;34.92;;;;;;;5.31;100.00;100922.84;4997452;28;20026;-71
2024/03/05 02:03:37;;;;;;;86.30;35.28;;;;;;;5.30;100.00;100916.09;4979105;28;20124;-72
2024/03/05 02:06:06;;;;;;;76.63;32.08;;;;;;;5.27;100.00;100914.56;4996789;28;20533;-71
2024/03/05 02:08:31;;;;;;;87.80;33.58;;;;;;;5.28;100.00;100921.34;4980675;28;20052;-72
2024/03/05 02:10:57;;;;;;;87.38;32.35;;;;;;;5.28;100.00;100915.41;4980297;28;20034;-71
2024/03/05 02:13:24;;;;;;;81.10;34.05;;;;;;;5.29;100.00;100917.00;4981849;28;20033;-71
2024/03/05 02:15:50;;;;;;;92.68;35.35;;;;;;;5.31;100.00;100917.72;4979716;28;20374;-71
2024/03/05 02:18:16;;;;;;;85.78;34.22;;;;;;;5.32;100.00;100916.78;4977894;28;20037;-71
2024/03/05 02:20:41;;;;;;;82.55;33.80;;;;;;;5.31;100.00;100913.38;4982783;28;20593;-71
2024/03/05 02:23:08;;;;;;;82.45;33.97;;;;;;;5.32;100.00;100911.66;4998322;28;20046;-71
2024/03/05 02:25:34;;;;;;;84.35;34.35;;;;;;;5.31;100.00;100912.56;4979346;28;20055;-71
2024/03/05 02:28:02;;;;;;;91.18;35.53;;;;;;;5.29;100.00;100909.31;4982672;28;20042;-71
2024/03/05 02:30:31;;;;;;;83.53;34.03;;;;;;;5.28;100.00;100916.22;4968453;28;20066;-71
2024/03/05 02:32:58;;;;;;;106.07;40.00;;;;;;;5.35;100.00;100906.25;4977888;28;20030;-71
2024/03/05 02:35:23;;;;;;;94.55;38.00;;;;;;;5.39;100.00;100910.25;4977498;28;20410;-71
2024/03/05 02:37:49;;;;;;;103.97;39.42;;;;;;;5.44;100.00;100916.66;4981789;28;20042;-71
2024/03/05 02:40:15;;;;;;;100.10;39.45;;;;;;;5.50;100.00;100910.22;4965345;28;20046;-71
2024/03/05 02:42:41;;;;;;;106.57;40.05;;;;;;;5.48;100.00;100922.34;4998187;28;20037;-71
2024/03/05 02:45:08;;;;;;;94.60;38.83;;;;;;;5.46;100.00;100908.81;4977626;28;20102;-71
2024/03/05 02:47:39;;;;;;;94.90;37.80;;;;;;;5.45;100.00;100920.03;4980559;28;20030;-71
2024/03/05 02:50:05;;;;;;;105.05;38.58;;;;;;;5.47;100.00;100916.41;4979586;28;20180;-71
2024/03/05 02:52:31;;;;;;;100.97;38.13;;;;;;;5.45;100.00;100910.56;4995114;28;20030;-71
2024/03/05 02:54:57;;;;;;;93.13;37.60;;;;;;;5.44;100.00;100915.81;4975808;28;20046;-71
2024/03/05 02:57:24;;;;;;;91.97;36.95;;;;;;;5.43;100.00;100916.78;4978345;28;20049;-71
2024/03/05 02:59:51;;;;;;;90.00;36.25;;;;;;;5.45;100.00;100917.47;4991079;28;20713;-71
2024/03/05 03:02:17;;;;;;;97.82;38.22;;;;;;;5.49;100.00;100907.75;4979224;28;20022;-71
2024/03/05 03:04:42;;;;;;;106.22;39.58;;;;;;;5.54;100.00;100909.03;4976885;28;20604;-71
2024/03/05 03:07:08;;;;;;;103.35;41.83;;;;;;;5.65;100.00;100911.59;4980774;28;20488;-71
2024/03/05 03:09:33;;;;;;;97.50;39.42;;;;;;;5.92;100.00;100914.66;4980900;28;20033;-71
2024/03/05 03:11:59;;;;;;;106.43;39.95;;;;;;;5.78;100.00;100918.31;4978969;28;20081;-71
2024/03/05 03:14:25;;;;;;;102.22;40.60;;;;;;;5.72;100.00;100913.66;4983058;28;20073;-71
2024/03/05 03:16:50;;;;;;;104.22;40.55;;;;;;;5.68;100.00;100918.22;4965255;28;20046;-71
2024/03/05 03:19:16;;;;;;;110.75;40.00;;;;;;;5.70;100.00;100912.97;4975936;28;20049;-71
2024/03/05 03:21:42;;;;;;;101.38;39.45;;;;;;;5.69;100.00;100914.72;4977535;28;20077;-71
2024/03/05 03:24:11;;;;;;;98.57;38.72;;;;;;;5.65;100.00;100913.31;4979957;28;20129;-71
2024/03/05 03:26:38;;;;;;;101.95;39.80;;;;;;;5.60;100.00;100916.25;4978901;28;20554;-71
2024/03/05 03:29:05;;;;;;;98.75;37.45;;;;;;;5.59;100.00;100914.63;4979798;28;20061;-71
2024/03/05 03:31:30;;;;;;;96.93;37.45;;;;;;;5.57;100.00;100918.25;4979727;28;20042;-71
2024/03/05 03:33:56;;;;;;;113.90;40.10;;;;;;;5.64;100.00;100919.41;4993576;28;20046;-71
2024/03/05 03:36:25;;;;;;;98.55;39.75;;;;;;;5.66;100.00;100914.97;4984739;28;20030;-71
2024/03/05 03:38:51;;;;;;;106.00;39.75;;;;;;;5.74;100.00;100907.44;4984914;28;20049;-71
2024/03/05 03:41:17;;;;;;;100.88;39.85;;;;;;;5.72;100.00;100911.91;4982150;28;20157;-71
2024/03/05 03:43:43;;;;;;;95.78;38.85;;;;;;;5.66;100.00;100908.06;4985811;28;20129;-71
2024/03/05 03:46:08;;;;;;;96.40;38.35;;;;;;;5.66;100.00;100909.81;4985328;28;20031;-71
2024/03/05 03:48:37;;;;;;;102.28;40.42;;;;;;;5.65;100.00;100914.16;4984841;28;20045;-71
2024/03/05 03:51:03;;;;;;;108.13;40.65;;;;;;;5.65;100.00;100903.88;4969819;28;20729;-71
2024/03/05 03:53:30;;;;;;;103.50;40.90;;;;;;;5.66;100.00;100908.06;4984462;28;20038;-72
2024/03/05 03:55:57;;;;;;;106.85;41.58;;;;;;;5.76;100.00;100904.75;4999317;28;20043;-71
2024/03/05 03:58:23;;;;;;;105.30;40.72;;;;;;;5.83;100.00;100906.72;4985524;28;20029;-71
2024/03/05 04:00:49;;;;;;;96.30;38.22;;;;;;;5.77;100.00;100911.56;4983701;28;20035;-71
2024/03/05 04:03:15;;;;;;;105.97;38.95;;;;;;;5.73;100.00;100905.03;4986964;28;20034;-71
2024/03/05 04:05:41;;;;;;;106.95;40.45;;;;;;;5.80;100.00;100908.72;4981453;28;20043;-71
2024/03/05 04:08:06;;;;;;;105.47;39.88;;;;;;;5.80;100.00;100906.97;5002801;28;20049;-71
2024/03/05 04:10:31;;;;;;;104.30;41.80;;;;;;;5.88;100.00;100916.66;4979497;28;20039;-71
2024/03/05 04:12:57;;;;;;;107.80;43.20;;;;;;;5.90;100.00;100916.53;5013924;22;20045;-69
2024/03/05 04:15:22;;;;;;;102.60;40.67;;;;;;;5.84;100.00;100916.09;5018487;28;20107;-69
2024/03/05 04:17:49;;;;;;;107.78;41.88;;;;;;;5.89;100.00;100915.69;5022082;28;20024;-70
2024/03/05 04:20:14;;;;;;;99.50;38.03;;;;;;;5.99;100.00;100916.66;5018442;28;20048;-71
2024/03/05 04:22:40;;;;;;;106.70;40.20;;;;;;;5.95;100.00;100922.13;5007780;28;20107;-70
2024/03/05 04:25:06;;;;;;;99.45;39.63;;;;;;;5.92;100.00;100920.63;5024956;28;20033;-71
2024/03/05 04:27:32;;;;;;;100.55;40.15;;;;;;;5.92;100.00;100925.75;5008562;28;20075;-70
2024/03/05 04:29:59;;;;;;;98.68;37.85;;;;;;;5.85;100.00;100934.91;5038106;28;20040;-71
2024/03/05 04:32:28;;;;;;;100.68;38.55;;;;;;;5.84;100.00;100926.38;5044686;28;20037;-71
2024/03/05 04:35:06;;;;;;;101.90;39.05;;;;;;;5.78;100.00;100932.03;5024943;28;20402;-71
2024/03/05 04:37:32;;;;;;;99.65;38.20;;;;;;;5.74;100.00;100934.94;5026758;28;20126;-70
2024/03/05 04:39:57;;;;;;;107.78;40.58;;;;;;;5.83;100.00;100940.16;5044675;28;20638;-70
2024/03/05 04:42:24;;;;;;;102.95;39.00;;;;;;;5.76;100.00;100933.88;5024951;28;20033;-70
2024/03/05 04:44:51;;;;;;;100.07;37.80;;;;;;;5.74;100.00;100937.50;5019908;28;20037;-71
2024/03/05 04:47:17;;;;;;;101.70;38.47;;;;;;;5.72;100.00;100940.19;5020515;28;20071;-71
2024/03/05 04:49:42;;;;;;;96.25;36.75;;;;;;;5.71;100.00;100938.59;5028209;28;20033;-70
2024/03/05 04:52:09;;;;;;;94.55;37.60;;;;;;;5.72;100.00;100941.97;5041678;28;20060;-70
2024/03/05 04:54:36;;;;;;;95.93;38.40;;;;;;;5.72;100.00;100937.63;5042271;28;20089;-71
2024/03/05 04:57:01;;;;;;;93.63;37.97;;;;;;;5.72;100.00;100937.63;5022984;28;20063;-70
2024/03/05 04:59:27;;;;;;;91.35;36.20;;;;;;;5.72;100.00;100941.97;5018594;28;20048;-71
2024/03/05 05:01:53;;;;;;;89.28;35.35;;;;;;;5.72;100.00;100939.38;5043381;28;20434;-71
2024/03/05 05:04:19;;;;;;;89.20;35.70;;;;;;;5.69;100.00;100940.47;5045983;28;20033;-70
2024/03/05 05:06:44;;;;;;;94.43;36.17;;;;;;;5.74;100.00;100938.31;5016419;28;20391;-70
2024/03/05 05:09:10;;;;;;;95.85;38.15;;;;;;;5.76;100.00;100930.50;5021361;28;20033;-70
2024/03/05 05:11:36;;;;;;;97.53;38.53;;;;;;;5.73;100.00;100939.28;5040159;28;20033;-71
2024/03/05 05:14:02;;;;;;;95.38;37.13;;;;;;;5.72;100.00;100937.63;5026357;28;20580;-71
2024/03/05 05:16:28;;;;;;;101.65;41.47;;;;;;;5.83;100.00;100942.75;5017655;28;20029;-71
2024/03/05 05:18:54;;;;;;;100.03;38.05;;;;;;;5.84;100.00;100944.41;5039345;28;20646;-71
2024/03/05 05:21:19;;;;;;;94.90;38.45;;;;;;;5.84;100.00;100939.25;5007126;28;20075;-70
2024/03/05 05:23:44;;;;;;;99.32;38.33;;;;;;;5.84;100.00;100935.88;5020393;28;20056;-71
2024/03/05 05:26:12;;;;;;;112.65;39.50;;;;;;;5.90;100.00;100937.94;5041347;28;20041;-70
2024/03/05 05:28:38;;;;;;;105.82;40.53;;;;;;;5.85;100.00;100937.47;5019795;28;20036;-71
2024/03/05 05:31:05;;;;;;;100.40;37.60;;;;;;;5.90;100.00;100937.13;5037613;28;20487;-70
2024/03/05 05:33:32;;;;;;;95.75;37.08;;;;;;;5.81;100.00;100934.34;5023753;28;20037;-71
2024/03/05 05:35:57;;;;;;;102.43;38.40;;;;;;;5.78;100.00;100937.16;5021281;28;20087;-70
2024/03/05 05:38:24;;;;;;;101.38;39.03;;;;;;;5.82;100.00;100938.56;5039742;28;20025;-70
2024/03/05 05:40:49;;;;;;;100.07;37.22;;;;;;;5.94;100.00;100938.50;5023382;28;20060;-71
2024/03/05 05:43:15;;;;;;;100.20;38.65;;;;;;;5.97;100.00;100943.44;5023851;28;20051;-70
2024/03/05 05:45:40;;;;;;;98.05;37.40;;;;;;;5.88;100.00;100939.81;5038951;28;20056;-70
2024/03/05 05:48:05;;;;;;;99.25;38.20;;;;;;;5.87;100.00;100942.50;5042226;28;20037;-70
2024/03/05 05:50:31;;;;;;;96.20;36.63;;;;;;;5.88;100.00;100944.13;5037724;28;20132;-70
2024/03/05 05:52:57;;;;;;;95.60;36.15;;;;;;;5.88;100.00;100944.13;5043430;28;20036;-70
2024/03/05 05:55:27;;;;;;;110.53;39.10;;;;;;;5.93;100.00;100947.16;5021539;28;20044;-71
2024/03/05 05:57:53;;;;;;;98.32;37.63;;;;;;;6.01;100.00;100945.66;5021161;28;20098;-70
2024/03/05 06:00:24;;;;;;;97.60;38.65;;;;;;;5.96;100.00;100947.78;5039157;28;20045;-70
2024/03/05 06:02:54;;;;;;;109.60;39.38;;;;;;;6.00;100.00;100944.00;5041408;28;21366;-70
2024/03/05 06:05:27;;;;;;;100.43;38.30;;;;;;;6.02;100.00;100949.84;5021579;28;20035;-70
2024/03/05 06:07:53;;;;;;;97.32;36.88;;;;;;;5.89;100.00;100956.88;5040046;28;20041;-71
2024/03/05 06:10:19;;;;;;;100.22;38.53;;;;;;;5.87;100.00;100957.97;5039174;28;20482;-71
2024/03/05 06:12:45;;;;;;;105.72;37.58;;;;;;;5.90;100.00;100950.00;5006534;28;20029;-70
2024/03/05 06:15:11;;;;;;;94.75;37.63;;;;;;;5.88;100.00;100964.72;5026454;28;20124;-70
2024/03/05 06:17:38;;;;;;;98.18;38.22;;;;;;;5.93;100.00;100965.19;5040072;28;20029;-71
2024/03/05 06:20:12;;;;;;;93.50;36.65;;;;;;;5.96;100.00;100968.38;5019813;28;20124;-70
2024/03/05 06:22:39;;;;;;;99.80;36.92;;;;;;;5.93;100.00;100966.00;5039933;28;20055;-70
2024/03/05 06:25:09;;;;;;;113.18;37.63;;;;;;;5.95;100.00;100973.59;5042278;28;20043;-71
2024/03/05 06:27:36;;;;;;;92.18;36.10;;;;;;;5.94;100.00;100971.97;5040249;28;20497;-70
2024/03/05 06:30:04;;;;;;;95.30;38.67;;;;;;;6.03;100.00;100966.13;5021577;28;20098;-70
2024/03/05 06:32:31;;;;;;;99.43;37.72;;;;;;;6.01;100.00;100975.75;5038018;28;20033;-71
2024/03/05 06:34:57;;;;;;;93.30;36.40;;;;;;;5.98;100.00;100976.78;5022966;28;20072;-70
2024/03/05 06:37:23;;;;;;;92.35;36.17;;;;;;;6.06;100.00;100972.78;5024246;28;20029;-70
2024/03/05 06:39:48;;;;;;;99.30;37.08;;;;;;;6.00;100.00;100979.25;5033469;28;20400;-70
2024/03/05 06:42:13;;;;;;;92.70;35.47;;;;;;;5.96;100.00;100981.22;5039289;28;20045;-70
2024/03/05 06:44:47;;;;;;;97.32;36.35;;;;;;;5.99;100.00;100983.56;5016462;28;20172;-70
2024/03/05 06:47:14;;;;;;;98.97;37.33;;;;;;;6.06;100.00;100980.50;5023823;28;20033;-70
2024/03/05 06:49:40;;;;;;;89.80;35.75;;;;;;;6.04;100.00;100973.72;5037912;28;22038;-70
2024/03/05 06:57:34;;;;;;;95.90;36.42;;;;;;;6.02;100.00;100970.44;5041120;28;20056;-70
2024/03/05 06:59:59;;;;;;;89.50;36.33;;;;;;;6.09;100.00;100975.13;5040081;28;20117;-70
2024/03/05 07:02:30;;;;;;;89.47;36.00;;;;;;;6.23;100.00;100978.22;5039133;28;20032;-70
2024/03/05 07:04:56;;;;;;;94.20;37.50;;;;;;;6.13;100.00;100979.09;5021287;28;20561;-71
2024/03/05 07:07:22;;;;;;;101.97;39.25;;;;;;;6.05;100.00;100982.28;5006298;28;20474;-70
2024/03/05 07:09:47;;;;;;;98.00;37.10;;;;;;;5.98;100.00;100989.66;5041005;28;20029;-70
2024/03/05 07:12:13;;;;;;;97.88;38.08;;;;;;;5.96;100.00;100998.44;5043650;28;20032;-70
2024/03/05 07:14:41;;;;;;;102.50;38.97;;;;;;;5.94;100.00;100995.16;5041220;28;20058;-70
2024/03/05 07:17:08;;;;;;;96.63;38.20;;;;;;;5.97;100.00;100995.75;5008952;28;20483;-71
2024/03/05 07:19:34;;;;;;;93.43;37.40;;;;;;;5.96;100.00;100993.28;5022310;28;20045;-71
2024/03/05 07:22:01;;;;;;;94.53;35.88;;;;;;;6.00;100.00;100994.69;5018522;28;20053;-71
2024/03/05 07:24:28;;;;;;;101.68;36.78;;;;;;;6.04;100.00;100996.06;5037124;28;20099;-71
2024/03/05 07:26:54;;;;;;;93.57;35.97;;;;;;;6.09;100.00;100999.09;5024579;28;20377;-71
2024/03/05 07:29:20;;;;;;;94.55;36.95;;;;;;;6.14;100.00;101001.31;5042739;28;20045;-71
2024/03/05 07:31:49;;;;;;;98.63;36.80;;;;;;;6.16;100.00;101004.56;5022895;28;20129;-71
2024/03/05 07:34:15;;;;;;;92.05;35.25;;;;;;;6.10;100.00;101005.88;5040271;28;20046;-69
2024/03/05 07:36:43;;;;;;;92.53;36.53;;;;;;;6.10;100.00;101000.72;5021548;28;20032;-69
2024/03/05 07:39:11;;;;;;;115.53;44.15;;;;;;;6.09;100.00;101003.44;5037501;28;20029;-69
2024/03/05 07:41:39;;;;;;;110.13;41.55;;;;;;;6.09;100.00;101008.59;5037482;28;20041;-69
2024/03/05 07:44:05;;;;;;;98.05;38.40;;;;;;;6.10;100.00;101000.72;5020066;28;20544;-70
2024/03/05 07:46:32;;;;;;;95.03;36.63;;;;;;;6.10;100.00;100999.91;5020881;28;20120;-70
2024/03/05 07:48:58;;;;;;;99.88;39.05;;;;;;;6.17;100.00;101001.06;5017795;28;20041;-69
2024/03/05 07:51:23;;;;;;;101.53;38.95;;;;;;;6.19;100.00;100991.47;5017658;28;20035;-69
2024/03/05 07:53:49;;;;;;;106.50;39.53;;;;;;;6.21;100.00;100990.38;5018689;28;20095;-70
2024/03/05 07:56:14;;;;;;;84.30;35.42;;;;;;;6.19;100.00;100999.19;5037649;28;20036;-69
2024/03/05 07:58:40;;;;;;;93.15;36.13;;;;;;;6.16;100.00;100989.97;5035472;28;20029;-68
2024/03/05 08:01:06;;;;;;;87.25;35.45;;;;;;;6.17;100.00;100991.59;5036532;28;20426;-70
2024/03/05 08:03:32;;;;;;;92.72;35.50;;;;;;;6.18;100.00;100995.81;5016629;28;20037;-69
2024/03/05 08:05:58;;;;;;;99.38;36.75;;;;;;;6.20;100.00;100990.53;5038142;28;20087;-69
2024/03/05 08:08:25;;;;;;;95.63;35.25;;;;;;;6.21;100.00;100998.13;5015791;28;20048;-69
2024/03/05 08:10:51;;;;;;;81.72;34.33;;;;;;;6.22;100.00;100998.94;5021688;28;20060;-69
2024/03/05 08:13:19;;;;;;;96.63;37.00;;;;;;;6.25;100.00;100998.69;5038045;28;20068;-69
2024/03/05 08:15:44;;;;;;;90.30;34.38;;;;;;;6.26;100.00;101002.91;5021863;28;20776;-69
2024/03/05 08:18:12;;;;;;;88.45;34.55;;;;;;;6.27;100.00;101003.72;5036898;28;20040;-69
2024/03/05 08:20:38;;;;;;;85.13;35.05;;;;;;;6.27;100.00;101012.25;5003220;28;20100;-69
2024/03/05 08:23:04;;;;;;;89.88;35.20;;;;;;;6.30;100.00;101008.63;5018149;28;20404;-69
2024/03/05 08:25:29;;;;;;;91.97;36.03;;;;;;;6.31;100.00;101016.25;5025437;28;20037;-70
2024/03/05 08:27:56;;;;;;;91.68;36.95;;;;;;;6.32;100.00;101017.88;5025397;28;20590;-69
2024/03/05 08:30:24;;;;;;;82.65;34.13;;;;;;;6.34;100.00;101022.91;5016648;28;20514;-70
2024/03/05 08:32:51;;;;;;;78.32;33.08;;;;;;;6.33;100.00;101021.25;5020398;28;20040;-70
2024/03/05 08:35:16;;;;;;;89.28;34.38;;;;;;;6.34;100.00;101017.75;5026871;28;20142;-68
2024/03/05 08:37:45;;;;;;;89.90;34.95;;;;;;;6.36;100.00;101021.03;5024541;28;20503;-70
2024/03/05 08:40:21;;;;;;;90.50;34.67;;;;;;;6.41;100.00;101024.06;5042083;28;20088;-69
2024/03/05 08:42:51;;;;;;;99.32;34.13;;;;;;;6.41;100.00;101029.22;5017974;28;20126;-69
2024/03/05 08:45:22;;;;;;;80.18;32.67;;;;;;;6.42;100.00;101029.09;5042956;28;20044;-69
2024/03/05 08:47:49;;;;;;;83.85;33.38;;;;;;;6.42;100.00;101029.09;5043341;28;20025;-69
2024/03/05 08:50:15;;;;;;;90.05;37.28;;;;;;;6.46;100.00;101031.41;5041876;28;20037;-69
2024/03/05 08:52:41;;;;;;;95.03;37.45;;;;;;;6.51;100.00;101034.44;5043750;28;20025;-69
2024/03/05 08:55:10;;;;;;;86.97;36.58;;;;;;;6.51;100.00;101042.97;5042117;28;21018;-69
2024/03/05 08:57:42;;;;;;;93.65;37.35;;;;;;;6.51;100.00;101037.81;5044550;28;20039;-69
2024/03/05 09:00:14;;;;;;;106.00;37.90;;;;;;;6.52;100.00;101034.31;5042331;28;20410;-69
2024/03/05 09:02:41;;;;;;;99.00;40.20;;;;;;;6.62;100.00;101039.53;5024975;28;20029;-69
2024/03/05 09:05:09;;;;;;;94.28;37.10;;;;;;;6.58;100.00;101043.31;5024234;28;20033;-69
2024/03/05 09:07:36;;;;;;;91.65;37.13;;;;;;;6.57;100.00;101045.06;5043505;28;20075;-69
2024/03/05 09:10:03;;;;;;;101.72;36.80;;;;;;;6.60;100.00;101044.00;5022592;28;20076;-69
2024/03/05 09:12:28;;;;;;;90.60;35.22;;;;;;;6.56;100.00;101048.56;5039885;28;20104;-68
2024/03/05 09:14:54;;;;;;;103.30;37.70;;;;;;;6.53;100.00;101040.28;5019248;28;20076;-69
2024/03/05 09:17:21;;;;;;;113.53;40.38;;;;;;;6.51;100.00;101049.88;5022407;28;20175;-69
2024/03/05 09:19:46;;;;;;;101.10;36.08;;;;;;;6.55;100.00;101053.84;5038541;28;20029;-69
2024/03/05 09:22:15;;;;;;;100.13;38.35;;;;;;;6.55;100.00;101054.66;5021279;28;20449;-68
2024/03/05 09:24:43;;;;;;;101.43;37.35;;;;;;;6.57;100.00;101049.38;5015622;28;20075;-69
2024/03/05 09:27:08;;;;;;;96.25;36.40;;;;;;;6.56;100.00;101056.31;5016515;28;20047;-69
2024/03/05 09:29:34;;;;;;;100.72;37.80;;;;;;;6.58;100.00;101054.41;5003740;28;20033;-70
2024/03/05 09:32:00;;;;;;;97.55;36.92;;;;;;;6.61;100.00;101050.78;5005306;28;20041;-69
2024/03/05 09:34:26;;;;;;;92.90;34.30;;;;;;;6.64;100.00;101055.69;5041019;28;20051;-69
2024/03/05 09:36:52;;;;;;;96.47;36.70;;;;;;;6.69;100.00;101061.28;5020393;28;20488;-71
2024/03/05 09:39:20;;;;;;;93.22;38.60;;;;;;;6.91;100.00;101062.13;5024800;28;20044;-71
2024/03/05 09:41:46;;;;;;;95.88;38.92;;;;;;;6.82;100.00;101067.09;5042139;28;20029;-71
2024/03/05 09:44:12;;;;;;;93.95;36.95;;;;;;;6.83;100.00;101062.75;5024104;28;20060;-70
2024/03/05 09:46:39;;;;;;;94.93;37.40;;;;;;;6.82;100.00;101064.50;5025342;28;20052;-71
2024/03/05 09:49:11;;;;;;;93.00;35.13;;;;;;;6.83;100.00;101066.13;5008458;28;20056;-71
2024/03/05 09:51:41;;;;;;;87.15;36.20;;;;;;;6.85;100.00;101060.84;5023495;28;20043;-71
2024/03/05 09:54:10;;;;;;;97.28;36.65;;;;;;;6.89;100.00;101067.38;5042955;28;20490;-71
2024/03/05 09:56:39;;;;;;;96.65;38.67;;;;;;;6.93;100.00;101066.22;5025622;28;21275;-71
2024/03/05 09:59:05;;;;;;;103.32;40.03;;;;;;;6.97;100.00;101066.78;5025225;28;20037;-71
2024/03/05 10:01:34;;;;;;;107.10;40.95;;;;;;;7.01;100.00;101065.59;5017980;28;20045;-72
2024/03/05 10:04:05;;;;;;;91.47;36.83;;;;;;;7.01;100.00;101068.97;5042001;28;20439;-71
2024/03/05 10:06:30;;;;;;;102.78;37.63;;;;;;;7.06;100.00;101067.78;5026309;28;20039;-71
2024/03/05 10:08:55;;;;;;;99.38;37.85;;;;;;;7.13;100.00;101079.22;5026322;28;20044;-71
2024/03/05 10:11:22;;;;;;;98.10;37.50;;;;;;;7.12;100.00;101075.84;5017704;28;20052;-71
2024/03/05 10:13:47;;;;;;;99.68;36.72;;;;;;;7.18;100.00;101069.34;5019788;28;20067;-71
2024/03/05 10:16:17;;;;;;;95.90;37.88;;;;;;;7.21;100.00;101076.81;5042613;28;22088;-71
2024/03/05 10:18:46;;;;;;;96.70;37.47;;;;;;;7.24;100.00;101076.56;5042521;28;21976;-70
2024/03/05 10:21:25;;;;;;;81.53;32.38;;;;;;;7.27;100.00;101084.06;5021380;28;20033;-71
2024/03/05 10:24:02;;;;;;;88.85;37.10;;;;;;;7.30;100.00;101075.25;5042870;28;20463;-71
2024/03/05 10:26:29;;;;;;;89.82;36.20;;;;;;;7.36;100.00;101082.47;5021647;28;20112;-71
2024/03/05 10:28:58;;;;;;;94.47;37.03;;;;;;;7.39;100.00;101077.06;5023158;28;20151;-71
2024/03/05 10:31:25;;;;;;;99.60;38.70;;;;;;;7.45;100.00;101076.53;5043466;28;20116;-71
2024/03/05 10:33:56;;;;;;;98.22;38.40;;;;;;;7.55;100.00;101077.41;5038601;28;20053;-71
2024/03/05 10:36:48;;;;;;;102.88;38.53;;;;;;;7.59;100.00;101077.94;5018649;28;20032;-70
2024/03/05 10:39:14;;;;;;;95.17;38.63;;;;;;;7.67;100.00;101080.72;5020678;28;20045;-71
2024/03/05 10:41:40;;;;;;;90.38;36.97;;;;;;;7.68;100.00;101081.53;5022892;28;20087;-71
2024/03/05 10:44:07;;;;;;;95.45;38.95;;;;;;;7.76;100.00;101081.69;5016316;28;20030;-71
2024/03/05 10:46:34;;;;;;;90.95;36.33;;;;;;;7.77;100.00;101085.91;5025341;28;20064;-71
2024/03/05 10:49:03;;;;;;;89.60;37.75;;;;;;;7.80;100.00;101080.50;5027363;28;20043;-71
2024/03/05 10:51:36;;;;;;;89.55;36.10;;;;;;;7.86;100.00;101089.47;5038175;28;20461;-72
2024/03/05 10:54:02;;;;;;;89.85;37.88;;;;;;;7.86;100.00;101085.13;5023746;28;20514;-71
2024/03/05 10:56:28;;;;;;;88.38;37.30;;;;;;;7.91;100.00;101088.16;5022051;28;20044;-71
2024/03/05 11:01:24;;;;;;;146.38;62.42;;;;;;;8.07;100.00;101086.81;5041019;28;20052;-71
2024/03/05 11:03:55;;;;;;;76.60;34.97;;;;;;;8.11;100.00;101088.19;5023921;28;21858;-71
2024/03/05 11:06:20;;;;;;;93.00;40.25;;;;;;;8.08;100.00;101088.44;5039054;28;20029;-71
2024/03/05 11:08:48;;;;;;;82.25;36.10;;;;;;;8.02;100.00;101084.63;5022438;28;20577;-71
2024/03/05 11:11:21;;;;;;;85.57;39.50;;;;;;;8.06;100.00;101086.00;5024469;28;20033;-71
2024/03/05 11:13:51;;;;;;;75.20;33.53;;;;;;;8.04;100.00;101082.72;5023169;28;20045;-71